Time;durP1;ratioP1;P1;durP2;ratioP2;P2;SDS_P1;SDS_P2;PMS_P1;PMS_P2;Temp;Humidity;BMP_temperature;BMP_pressure;BME280_temperature;BME280_humidity;BME280_pressure;Samples;Min_cycle;Max_cycle;Signal;HPM_P1;HPM_P2
2021/05/31 00:00:34;;;;;;;;;;;;;;;21.57;51.21;100615.28;5076871;28;752;-61
2021/05/31 00:03:00;;;;;;;;;;;;;;;21.86;53.73;100616.84;5077042;28;1006;-61
2021/05/31 00:05:25;;;;;;;;;;;;;;;22.07;53.16;100617.16;5077173;28;740;-58
2021/05/31 00:07:52;;;;;;;;;;;;;;;22.34;52.33;100619.00;5076522;28;1906;-61
2021/05/31 00:10:17;;;;;;;;;;;;;;;22.04;52.93;100620.56;5077232;28;764;-61
2021/05/31 00:12:43;;;;;;;;;;;;;;;21.44;54.69;100627.19;5076978;28;1206;-61
2021/05/31 00:15:09;;;;;;;;;;;;;;;21.16;54.59;100628.03;5076437;28;1099;-61
2021/05/31 00:17:34;;;;;;;;;;;;;;;21.33;54.47;100637.63;5076644;28;959;-61
2021/05/31 00:20:00;;;;;;;;;;;;;;;21.35;54.25;100632.63;5076766;28;823;-61
2021/05/31 00:22:25;;;;;;;;;;;;;;;21.63;52.90;100629.81;5076597;28;820;-62
2021/05/31 00:24:51;;;;;;;;;;;;;;;21.57;53.14;100631.88;5076753;28;800;-58
2021/05/31 00:27:16;;;;;;;;;;;;;;;21.50;53.12;100632.28;5076758;28;1967;-57
2021/05/31 00:29:42;;;;;;;;;;;;;;;21.51;52.81;100635.88;5075933;28;759;-58
2021/05/31 00:32:07;;;;;;;;;;;;;;;21.40;53.03;100635.28;5076149;28;975;-63
2021/05/31 00:34:33;;;;;;;;;;;;;;;21.41;53.02;100625.84;5076512;28;764;-58
2021/05/31 00:36:58;;;;;;;;;;;;;;;21.53;53.16;100625.31;5076220;28;744;-59
2021/05/31 00:39:24;;;;;;;;;;;;;;;21.91;53.23;100618.66;5077203;28;716;-59
2021/05/31 00:41:51;;;;;;;;;;;;;;;22.11;52.84;100623.69;5076431;28;744;-62
2021/05/31 00:44:17;;;;;;;;;;;;;;;22.30;52.44;100620.75;5076322;28;774;-58
2021/05/31 00:46:42;;;;;;;;;;;;;;;21.83;53.42;100629.34;5076208;28;1971;-57
2021/05/31 00:49:08;;;;;;;;;;;;;;;21.72;53.89;100625.19;5076557;28;944;-61
2021/05/31 00:51:33;;;;;;;;;;;;;;;21.50;52.31;100615.69;5075866;28;791;-57
2021/05/31 00:53:59;;;;;;;;;;;;;;;21.66;52.92;100618.16;5076392;28;823;-58
2021/05/31 00:56:24;;;;;;;;;;;;;;;21.81;53.69;100615.03;5076610;28;780;-62
2021/05/31 00:58:50;;;;;;;;;;;;;;;22.21;52.54;100623.44;5075938;28;763;-62
2021/05/31 01:01:15;;;;;;;;;;;;;;;22.36;51.94;100619.50;5076243;28;763;-62
2021/05/31 01:03:41;;;;;;;;;;;;;;;22.15;52.43;100613.63;5075772;28;967;-61
2021/05/31 01:06:07;;;;;;;;;;;;;;;21.89;53.19;100616.19;5075792;28;1902;-61
2021/05/31 01:08:36;;;;;;;;;;;;;;;21.75;51.66;100612.69;5076237;28;815;-61
2021/05/31 01:11:09;;;;;;;;;;;;;;;21.55;53.86;100617.56;5075981;28;871;-59
2021/05/31 01:13:37;;;;;;;;;;;;;;;21.93;53.38;100608.09;5054463;28;1095;-58
2021/05/31 01:16:05;;;;;;;;;;;;;;;22.22;52.56;100610.41;5056271;28;1041;-58
2021/05/31 01:18:40;;;;;;;;;;;;;;;22.23;52.10;100614.81;5054501;28;1042;-62
2021/05/31 01:21:09;;;;;;;;;;;;;;;21.81;53.51;100611.41;5055911;28;797;-58
2021/05/31 01:23:35;;;;;;;;;;;;;;;21.72;52.68;100610.53;5056634;28;785;-58
2021/05/31 01:26:04;;;;;;;;;;;;;;;21.66;52.87;100607.06;5055797;28;1933;-62
2021/05/31 01:28:48;;;;;;;;;;;;;;;22.01;53.16;100604.59;5056087;28;1416;-62
2021/05/31 01:31:15;;;;;;;;;;;;;;;22.32;52.23;100612.13;5055805;28;771;-57
2021/05/31 01:33:40;;;;;;;;;;;;;;;22.39;51.84;100605.00;5072617;28;1002;-63
2021/05/31 01:36:06;;;;;;;;;;;;;;;21.74;53.66;100603.56;5075692;28;792;-58
2021/05/31 01:38:32;;;;;;;;;;;;;;;21.39;54.38;100603.19;5057859;28;938;-62
2021/05/31 01:40:57;;;;;;;;;;;;;;;21.19;52.76;100602.50;5058811;28;1075;-58
2021/05/31 01:43:23;;;;;;;;;;;;;;;21.63;54.26;100602.16;5079902;28;874;-58
2021/05/31 01:45:48;;;;;;;;;;;;;;;22.05;52.84;100591.75;5061824;28;851;-61
2021/05/31 01:48:14;;;;;;;;;;;;;;;22.31;52.21;100591.09;5079404;28;1982;-57
2021/05/31 01:50:39;;;;;;;;;;;;;;;22.13;52.27;100588.22;5061818;28;752;-62
2021/05/31 01:53:05;;;;;;;;;;;;;;;21.78;53.57;100596.25;5061669;28;772;-57
2021/05/31 01:55:31;;;;;;;;;;;;;;;21.70;52.99;100585.94;5061755;28;832;-58
2021/05/31 01:57:56;;;;;;;;;;;;;;;21.47;52.15;100580.34;5051365;28;1279;-63
2021/05/31 02:00:22;;;;;;;;;;;;;;;21.70;54.02;100581.22;5058818;28;1105;-59
2021/05/31 02:02:47;;;;;;;;;;;;;;;22.09;52.88;100569.75;5078989;28;1077;-57
2021/05/31 02:05:14;;;;;;;;;;;;;;;22.42;51.74;100578.63;5061104;28;898;-58
2021/05/31 02:07:40;;;;;;;;;;;;;;;22.24;52.20;100574.91;5079273;28;1987;-61
2021/05/31 02:10:09;;;;;;;;;;;;;;;22.08;52.65;100574.50;5079330;28;811;-57
2021/05/31 02:12:41;;;;;;;;;;;;;;;21.55;52.03;100569.72;5061102;28;1220;-58
2021/05/31 02:15:07;;;;;;;;;;;;;;;21.65;53.54;100570.28;5079049;28;1182;-58
2021/05/31 02:17:44;;;;;;;;;;;;;;;21.89;53.22;100566.38;5078999;28;1037;-58
2021/05/31 02:20:11;;;;;;;;;;;;;;;22.17;52.45;100560.69;5078953;28;872;-58
2021/05/31 02:22:44;;;;;;;;;;;;;;;22.21;52.29;100556.97;5079087;28;760;-57
2021/05/31 02:25:10;;;;;;;;;;;;;;;22.31;52.03;100560.63;5079095;28;890;-62
2021/05/31 02:27:36;;;;;;;;;;;;;;;22.03;52.46;100569.09;5060957;28;1975;-58
2021/05/31 02:30:01;;;;;;;;;;;;;;;21.63;53.81;100563.41;5079021;28;925;-58
2021/05/31 02:32:30;;;;;;;;;;;;;;;21.47;53.52;100558.19;5078846;28;1026;-58
2021/05/31 02:34:56;;;;;;;;;;;;;;;21.27;54.08;100562.25;5078380;28;814;-57
2021/05/31 02:37:27;;;;;;;;;;;;;;;21.75;53.76;100571.16;5061538;28;752;-58
2021/05/31 02:39:53;;;;;;;;;;;;;;;22.15;52.60;100561.00;5078720;28;764;-57
2021/05/31 02:42:18;;;;;;;;;;;;;;;22.24;52.26;100565.78;5078327;28;803;-62
2021/05/31 02:44:43;;;;;;;;;;;;;;;22.35;51.79;100569.94;5078762;28;804;-58
2021/05/31 02:47:09;;;;;;;;;;;;;;;22.02;52.71;100556.34;5078176;28;1897;-58
2021/05/31 02:49:34;;;;;;;;;;;;;;;21.71;53.45;100559.91;5078368;28;756;-58
2021/05/31 02:52:00;;;;;;;;;;;;;;;21.63;52.97;100563.41;5077896;28;1123;-62
2021/05/31 02:54:25;;;;;;;;;;;;;;;21.48;52.70;100551.56;5078529;28;819;-59
2021/05/31 02:56:50;;;;;;;;;;;;;;;21.80;53.58;100565.50;5078446;28;759;-63
2021/05/31 02:59:16;;;;;;;;;;;;;;;22.15;52.56;100551.91;5078474;28;1008;-58
2021/05/31 03:01:41;;;;;;;;;;;;;;;22.21;52.22;100554.19;5078245;28;927;-62
2021/05/31 03:04:07;;;;;;;;;;;;;;;22.34;51.90;100558.06;5078352;28;1002;-58
2021/05/31 03:06:32;;;;;;;;;;;;;;;22.42;51.44;100550.91;5078023;28;1914;-58
2021/05/31 03:08:58;;;;;;;;;;;;;;;21.82;53.43;100543.88;5078457;28;807;-58
2021/05/31 03:11:23;;;;;;;;;;;;;;;21.76;53.25;100545.13;5078101;28;840;-57
2021/05/31 03:13:48;;;;;;;;;;;;;;;21.53;51.50;100537.63;5077986;28;811;-48
2021/05/31 03:16:14;;;;;;;;;;;;;;;21.74;53.85;100530.78;5077906;28;1039;-51
2021/05/31 03:18:39;;;;;;;;;;;;;;;22.08;52.84;100529.34;5076729;28;1006;-51
2021/05/31 03:21:05;;;;;;;;;;;;;;;22.26;52.23;100530.28;5077523;28;795;-50
2021/05/31 03:23:30;;;;;;;;;;;;;;;22.43;51.85;100538.72;5077816;28;743;-52
2021/05/31 03:25:56;;;;;;;;;;;;;;;22.00;52.90;100533.72;5077948;28;784;-60
2021/05/31 03:28:21;;;;;;;;;;;;;;;21.67;53.78;100536.75;5077420;28;1918;-50
2021/05/31 03:30:46;;;;;;;;;;;;;;;21.52;52.46;100524.94;5077560;28;847;-52
2021/05/31 03:33:12;;;;;;;;;;;;;;;21.58;53.77;100522.03;5077431;28;962;-58
2021/05/31 03:35:37;;;;;;;;;;;;;;;21.95;53.02;100525.53;5077490;28;752;-49
2021/05/31 03:38:03;;;;;;;;;;;;;;;22.17;52.42;100514.44;5077574;28;764;-48
2021/05/31 03:40:28;;;;;;;;;;;;;;;22.37;51.78;100528.88;5077890;28;811;-58
2021/05/31 03:42:54;;;;;;;;;;;;;;;22.40;51.71;100528.28;5077741;28;751;-52
2021/05/31 03:45:20;;;;;;;;;;;;;;;22.13;52.29;100524.53;5077664;28;767;-53
2021/05/31 03:47:45;;;;;;;;;;;;;;;21.76;53.40;100518.25;5051420;28;1914;-57
2021/05/31 03:50:11;;;;;;;;;;;;;;;21.59;52.30;100526.44;5057043;28;811;-54
2021/05/31 03:52:36;;;;;;;;;;;;;;;21.50;53.63;100516.09;5070342;28;1120;-58
2021/05/31 03:55:02;;;;;;;;;;;;;;;21.86;53.08;100514.44;5077043;28;808;-59
2021/05/31 03:57:28;;;;;;;;;;;;;;;22.33;51.85;100514.00;5082340;28;1491;-55
2021/05/31 03:59:53;;;;;;;;;;;;;;;22.40;51.47;100517.19;5086112;28;764;-54
2021/05/31 04:02:19;;;;;;;;;;;;;;;22.06;52.37;100510.28;5086959;28;884;-51
2021/05/31 04:04:47;;;;;;;;;;;;;;;22.09;51.92;100518.00;5076241;28;764;-56
2021/05/31 04:11:34;;;;;;;;;;;;;;;21.82;49.44;100513.41;5077185;28;1921;-51
2021/05/31 04:12:52;;;;;;;;;;;;;;;22.10;52.71;100516.84;5076631;28;779;-58
2021/05/31 04:15:18;;;;;;;;;;;;;;;22.39;51.77;100512.78;5058891;28;1142;-59
2021/05/31 04:17:44;;;;;;;;;;;;;;;22.25;51.93;100520.34;5051271;28;955;-60
2021/05/31 04:20:09;;;;;;;;;;;;;;;22.11;52.32;100517.66;5038606;28;1014;-58
2021/05/31 04:22:35;;;;;;;;;;;;;;;21.78;51.58;100516.00;5056894;28;816;-59
2021/05/31 04:25:00;;;;;;;;;;;;;;;21.81;52.97;100518.16;5056738;28;840;-60
2021/05/31 04:27:26;;;;;;;;;;;;;;;21.92;53.06;100517.88;5056355;28;1909;-60
2021/05/31 04:29:51;;;;;;;;;;;;;;;22.02;52.53;100507.38;5056703;28;760;-57
2021/05/31 04:32:17;;;;;;;;;;;;;;;22.33;51.62;100514.88;5061968;28;1002;-53
2021/05/31 04:34:43;;;;;;;;;;;;;;;22.32;51.74;100513.19;5074678;28;889;-57
2021/05/31 04:37:08;;;;;;;;;;;;;;;21.74;53.34;100514.19;5076454;28;811;-55
2021/05/31 04:39:34;;;;;;;;;;;;;;;21.51;53.90;100501.13;5076292;28;795;-57
2021/05/31 04:41:59;;;;;;;;;;;;;;;21.35;52.38;100519.25;5076243;28;866;-56
2021/05/31 04:44:25;;;;;;;;;;;;;;;21.51;53.75;100514.94;5076566;28;799;-55
2021/05/31 04:46:50;;;;;;;;;;;;;;;21.82;53.08;100511.47;5076181;28;1975;-55
2021/05/31 04:49:16;;;;;;;;;;;;;;;22.05;52.35;100522.53;5076238;28;776;-57
2021/05/31 04:51:43;;;;;;;;;;;;;;;22.29;51.70;100513.03;5076562;28;1151;-50
2021/05/31 04:54:09;;;;;;;;;;;;;;;22.37;51.39;100520.56;5076222;28;748;-53
2021/05/31 04:56:34;;;;;;;;;;;;;;;22.48;51.00;100533.03;5075982;28;784;-54
2021/05/31 04:59:00;;;;;;;;;;;;;;;21.95;52.48;100522.78;5076678;28;828;-51
2021/05/31 05:01:25;;;;;;;;;;;;;;;21.57;53.39;100526.75;5076024;28;839;-48
2021/05/31 05:03:50;;;;;;;;;;;;;;;21.35;51.88;100533.06;5085924;28;1041;-48
2021/05/31 05:06:16;;;;;;;;;;;;;;;21.75;53.29;100530.47;5096281;28;1913;-57
2021/05/31 05:08:44;;;;;;;;;;;;;;;22.09;52.23;100537.38;5095959;28;798;-53
2021/05/31 05:11:10;;;;;;;;;;;;;;;22.28;51.68;100541.88;5093296;28;2248;-59
2021/05/31 05:13:35;;;;;;;;;;;;;;;22.47;51.28;100547.19;5075651;28;999;-59
2021/05/31 05:16:01;;;;;;;;;;;;;;;21.92;52.47;100549.13;5075759;28;1028;-60
2021/05/31 05:18:27;;;;;;;;;;;;;;;21.84;52.58;100547.97;5044832;28;936;-57
2021/05/31 05:20:52;;;;;;;;;;;;;;;21.66;50.46;100557.28;5096058;28;799;-62
2021/05/31 05:23:18;;;;;;;;;;;;;;;21.83;53.22;100562.13;5081277;28;843;-47
2021/05/31 05:25:45;;;;;;;;;;;;;;;22.10;52.17;100563.91;5076045;28;768;-54
2021/05/31 05:28:10;;;;;;;;;;;;;;;22.48;51.34;100563.50;5075384;28;1918;-59
2021/05/31 05:30:36;;;;;;;;;;;;;;;22.30;51.48;100556.19;5076182;28;834;-60
2021/05/31 05:33:04;;;;;;;;;;;;;;;21.98;52.40;100560.88;5075221;28;958;-49
2021/05/31 05:48:29;;;;;;;;;;;;;;;22.24;51.88;100554.72;5074884;28;1983;-60
2021/05/31 05:51:07;;;;;;;;;;;;;;;22.05;51.08;100555.75;5075492;28;826;-49
2021/05/31 05:53:33;;;;;;;;;;;;;;;21.78;49.19;100557.50;5055759;28;788;-59
2021/05/31 05:55:59;;;;;;;;;;;;;;;21.80;51.89;100546.94;5055485;28;843;-63
2021/05/31 05:58:29;;;;;;;;;;;;;;;22.04;52.48;100546.63;5055321;28;824;-47
2021/05/31 06:00:55;;;;;;;;;;;;;;;22.35;51.51;100550.56;5055312;28;776;-58
2021/05/31 06:03:21;;;;;;;;;;;;;;;22.37;51.54;100551.03;5069113;28;967;-48
2021/05/31 06:05:46;;;;;;;;;;;;;;;22.24;51.71;100547.22;5057541;28;880;-52
2021/05/31 06:08:12;;;;;;;;;;;;;;;22.16;51.02;100543.28;5075603;28;1914;-60
2021/05/31 06:10:37;;;;;;;;;;;;;;;21.83;48.87;100539.97;5057260;28;948;-61
2021/05/31 06:13:02;;;;;;;;;;;;;;;21.82;52.88;100544.66;5075660;28;768;-47
2021/05/31 06:15:31;;;;;;;;;;;;;;;22.04;52.52;100538.31;5075683;28;1067;-56
2021/05/31 06:17:57;;;;;;;;;;;;;;;22.27;51.83;100537.44;5074610;28;1010;-61
2021/05/31 06:20:22;;;;;;;;;;;;;;;22.35;51.33;100540.28;5075928;28;733;-63
2021/05/31 06:22:47;;;;;;;;;;;;;;;22.16;51.91;100537.72;5075614;28;811;-50
2021/05/31 06:25:13;;;;;;;;;;;;;;;22.04;51.57;100541.06;5075038;28;744;-50
2021/05/31 06:27:38;;;;;;;;;;;;;;;21.63;50.13;100542.09;5076970;28;1906;-62
2021/05/31 06:30:04;;;;;;;;;;;;;;;21.72;53.47;100539.41;5078912;28;990;-52
2021/05/31 06:32:30;;;;;;;;;;;;;;;22.05;52.60;100547.44;5077922;28;927;-55
2021/05/31 06:34:56;;;;;;;;;;;;;;;22.32;51.57;100545.63;5079307;28;763;-49
2021/05/31 06:37:21;;;;;;;;;;;;;;;22.37;51.29;100538.03;5078931;28;775;-58
2021/05/31 06:39:50;;;;;;;;;;;;;;;22.24;51.54;100538.91;5078324;28;756;-57
2021/05/31 06:42:15;;;;;;;;;;;;;;;22.08;51.90;100541.28;5078859;28;873;-54
2021/05/31 06:44:41;;;;;;;;;;;;;;;21.70;51.92;100538.91;5078672;28;794;-65
2021/05/31 06:47:09;;;;;;;;;;;;;;;21.64;52.21;100537.38;5077751;28;1909;-60
2021/05/31 06:49:35;;;;;;;;;;;;;;;21.92;52.76;100540.03;5078606;28;803;-50
2021/05/31 06:52:02;;;;;;;;;;;;;;;22.19;51.64;100542.63;5078551;28;1209;-48
2021/05/31 06:54:27;;;;;;;;;;;;;;;22.34;51.28;100538.69;5060587;28;1252;-54
2021/05/31 06:56:53;;;;;;;;;;;;;;;22.51;50.80;100540.69;5078592;28;823;-62
2021/05/31 06:59:18;;;;;;;;;;;;;;;22.61;50.76;100552.63;5078210;28;764;-59
2021/05/31 07:01:43;;;;;;;;;;;;;;;22.12;52.00;100542.28;5077909;28;939;-56
2021/05/31 07:04:09;;;;;;;;;;;;;;;22.02;52.22;100534.22;5078749;28;999;-58
2021/05/31 07:06:35;;;;;;;;;;;;;;;21.66;50.84;100535.13;5078381;28;1968;-51
2021/05/31 07:09:01;;;;;;;;;;;;;;;21.59;52.70;100535.56;5077965;28;775;-59
2021/05/31 07:11:26;;;;;;;;;;;;;;;21.90;52.77;100539.53;5078274;28;983;-58
2021/05/31 07:13:54;;;;;;;;;;;;;;;22.30;51.65;100528.50;5078015;28;835;-58
2021/05/31 07:16:20;;;;;;;;;;;;;;;22.42;50.97;100534.28;5077730;28;1063;-66
2021/05/31 07:18:45;;;;;;;;;;;;;;;22.09;52.19;100526.31;5077649;28;971;-56
2021/05/31 07:21:11;;;;;;;;;;;;;;;22.07;51.74;100528.56;5077819;28;791;-51
2021/05/31 07:23:37;;;;;;;;;;;;;;;21.85;49.85;100527.47;5077802;28;760;-58
2021/05/31 07:26:04;;;;;;;;;;;;;;;21.69;52.30;100528.97;5078041;28;756;-62
2021/05/31 07:28:29;;;;;;;;;;;;;;;21.90;52.96;100534.00;5059757;28;1905;-58
2021/05/31 07:30:55;;;;;;;;;;;;;;;22.31;51.56;100527.38;5077742;28;815;-59
2021/05/31 07:33:20;;;;;;;;;;;;;;;22.46;51.11;100540.03;5077618;28;1014;-51
2021/05/31 07:35:45;;;;;;;;;;;;;;;22.14;51.93;100534.44;5077614;28;740;-57
2021/05/31 07:38:11;;;;;;;;;;;;;;;22.15;51.51;100536.09;5069917;28;1080;-56
2021/05/31 07:40:37;;;;;;;;;;;;;;;21.91;49.66;100532.84;5053358;28;1313;-59
2021/05/31 07:43:02;;;;;;;;;;;;;;;21.68;50.90;100532.84;5076515;28;1329;-60
2021/05/31 07:45:27;;;;;;;;;;;;;;;21.80;53.44;100538.66;5076951;28;760;-59
2021/05/31 07:47:53;;;;;;;;;;;;;;;22.19;52.13;100536.28;5049831;28;1902;-58
2021/05/31 07:50:18;;;;;;;;;;;;;;;22.52;51.06;100539.53;5056808;28;760;-59
2021/05/31 07:52:44;;;;;;;;;;;;;;;22.22;51.96;100541.19;5071026;28;1250;-57
2021/05/31 07:55:11;;;;;;;;;;;;;;;22.24;51.77;100549.16;5076581;28;855;-61
2021/05/31 07:57:36;;;;;;;;;;;;;;;21.77;51.02;100546.75;5076971;28;807;-49
2021/05/31 08:00:03;;;;;;;;;;;;;;;21.59;52.80;100535.56;5076845;28;879;-58
2021/05/31 08:02:41;;;;;;;;;;;;;;;21.88;53.04;100537.06;5076308;28;923;-59
2021/05/31 08:05:07;;;;;;;;;;;;;;;22.24;51.90;100549.16;5076652;28;927;-58
2021/05/31 08:07:32;;;;;;;;;;;;;;;22.26;51.82;100535.81;5077348;28;1966;-59
2021/05/31 08:09:58;;;;;;;;;;;;;;;22.47;51.26;100544.41;5076599;28;836;-62
2021/05/31 08:12:23;;;;;;;;;;;;;;;22.56;50.72;100546.09;5076975;28;776;-64
2021/05/31 08:14:49;;;;;;;;;;;;;;;22.03;52.07;100544.16;5076565;28;910;-60
2021/05/31 08:17:14;;;;;;;;;;;;;;;21.71;53.07;100548.81;5075892;28;1036;-47
2021/05/31 08:19:40;;;;;;;;;;;;;;;21.49;51.57;100553.19;5076852;28;756;-57
2021/05/31 08:22:05;;;;;;;;;;;;;;;21.51;53.82;100545.38;5076919;28;833;-57
2021/05/31 08:24:31;;;;;;;;;;;;;;;21.92;52.57;100548.31;5075332;28;1052;-57
2021/05/31 08:26:56;;;;;;;;;;;;;;;22.12;52.05;100549.75;5076692;28;1902;-61
2021/05/31 08:29:22;;;;;;;;;;;;;;;22.34;51.36;100549.75;5059049;28;1106;-61
2021/05/31 08:31:48;;;;;;;;;;;;;;;22.37;51.19;100554.66;5076145;28;955;-58
2021/05/31 08:34:13;;;;;;;;;;;;;;;22.36;51.22;100558.56;5076727;28;975;-48
2021/05/31 08:36:39;;;;;;;;;;;;;;;21.99;52.18;100554.22;5076351;28;759;-46
2021/05/31 08:39:05;;;;;;;;;;;;;;;21.70;52.56;100552.75;5076374;28;775;-47
2021/05/31 08:41:30;;;;;;;;;;;;;;;21.38;52.26;100551.78;5076570;28;803;-47
2021/05/31 08:43:56;;;;;;;;;;;;;;;21.73;53.13;100562.34;5084011;28;1297;-57
2021/05/31 08:46:21;;;;;;;;;;;;;;;22.11;52.01;100557.25;5083400;28;1984;-47
2021/05/31 08:48:47;;;;;;;;;;;;;;;22.43;50.89;100552.56;5077802;28;962;-53
2021/05/31 08:51:12;;;;;;;;;;;;;;;22.30;51.31;100558.97;5076301;28;1139;-55
2021/05/31 08:53:41;;;;;;;;;;;;;;;21.92;52.09;100559.41;5075885;28;795;-52
2021/05/31 08:56:07;;;;;;;;;;;;;;;21.73;51.93;100551.28;5075830;28;811;-57
2021/05/31 08:58:32;;;;;;;;;;;;;;;21.57;50.80;100543.34;5076365;28;795;-57
2021/05/31 09:00:57;;;;;;;;;;;;;;;21.86;52.80;100548.44;5075703;28;784;-55
2021/05/31 09:03:23;;;;;;;;;;;;;;;22.25;51.51;100545.28;5075803;28;959;-56
2021/05/31 09:05:49;;;;;;;;;;;;;;;22.46;50.84;100540.84;5076590;28;744;-54
2021/05/31 09:08:20;;;;;;;;;;;;;;;22.26;51.24;100541.34;5075104;28;1993;-57
2021/05/31 09:10:47;;;;;;;;;;;;;;;22.19;51.76;100537.09;5076106;28;855;-57
2021/05/31 09:13:13;;;;;;;;;;;;;;;21.87;50.25;100536.25;5076161;28;755;-54
2021/05/31 09:15:39;;;;;;;;;;;;;;;21.85;52.11;100541.28;5075614;28;1012;-54
2021/05/31 09:18:05;;;;;;;;;;;;;;;22.18;51.71;100541.00;5074915;28;896;-48
2021/05/31 09:20:30;;;;;;;;;;;;;;;22.47;50.89;100545.25;5076016;28;744;-54
2021/05/31 09:22:56;;;;;;;;;;;;;;;22.17;51.58;100538.53;5075002;28;839;-52
2021/05/31 09:25:22;;;;;;;;;;;;;;;22.21;51.45;100534.81;5076090;28;835;-54
2021/05/31 09:27:51;;;;;;;;;;;;;;;21.98;50.45;100536.81;5075714;28;1979;-56
2021/05/31 09:30:16;;;;;;;;;;;;;;;21.76;49.87;100534.88;5075424;28;625;-49
2021/05/31 09:32:51;;;;;;;;;;;;;;;21.84;52.86;100531.34;5075741;28;950;-59
2021/05/31 09:35:20;;;;;;;;;;;;;;;22.21;51.79;100536.78;5075989;28;752;-57
2021/05/31 09:37:45;;;;;;;;;;;;;;;22.39;51.12;100541.28;5060973;28;8021;-58
2021/05/31 09:40:11;;;;;;;;;;;;;;;22.27;51.46;100537.44;5017488;28;8340;-57
2021/05/31 09:42:36;;;;;;;;;;;;;;;22.26;51.24;100530.28;5026072;28;8612;-55
2021/05/31 09:45:07;;;;;;;;;;;;;;;21.73;49.19;100529.97;5028023;28;8400;-58
2021/05/31 09:47:33;;;;;;;;;;;;;;;21.75;52.95;100532.41;5029153;28;8518;-56
2021/05/31 09:49:58;;;;;;;;;;;;;;;22.13;51.96;100530.06;5030958;28;8369;-58
2021/05/31 09:52:24;;;;;;;;;;;;;;;22.47;50.91;100539.72;5029502;28;8457;-58
2021/05/31 09:54:50;;;;;;;;;;;;;;;22.41;50.91;100531.84;5029070;28;8420;-54
2021/05/31 09:57:16;;;;;;;;;;;;;;;22.07;51.89;100530.50;5020177;28;8453;-53
2021/05/31 09:59:46;;;;;;;;;;;;;;;21.75;51.57;100532.41;5019437;28;8430;-57
2021/05/31 10:02:15;;;;;;;;;;;;;;;21.66;49.90;100535.13;5024492;28;8370;-58
2021/05/31 10:09:41;;;;;;;;;;;;;;;22.45;50.86;100532.84;5027560;28;8419;-56
2021/05/31 10:12:07;;;;;;;;;;;;;;;22.13;51.80;100535.59;5013014;28;8568;-57
2021/05/31 10:14:33;;;;;;;;;;;;;;;22.12;51.24;100533.97;5029600;28;9262;-52
2021/05/31 10:16:59;;;;;;;;;;;;;;;21.91;49.46;100532.84;5034240;28;9320;-55
2021/05/31 10:19:24;;;;;;;;;;;;;;;21.85;51.87;100527.47;5030637;28;8405;-57
2021/05/31 10:21:49;;;;;;;;;;;;;;;22.02;52.29;100535.06;5027234;28;8482;-48
2021/05/31 10:24:15;;;;;;;;;;;;;;;22.37;51.30;100540.81;5019441;28;8627;-52
2021/05/31 10:26:40;;;;;;;;;;;;;;;22.25;51.31;100536.97;5031185;28;8410;-50
2021/05/31 10:29:06;;;;;;;;;;;;;;;22.01;52.18;100540.91;5025597;28;8627;-55
2021/05/31 10:31:41;;;;;;;;;;;;;;;21.97;50.75;100539.91;5018480;28;9246;-54
2021/05/31 10:34:15;;;;;;;;;;;;;;;21.74;51.11;100545.44;5027265;28;8620;-52
2021/05/31 10:36:41;;;;;;;;;;;;;;;21.91;52.58;100541.16;5023008;28;8461;-57
2021/05/31 10:39:06;;;;;;;;;;;;;;;22.24;51.60;100538.09;5028033;28;8434;-56
2021/05/31 10:41:32;;;;;;;;;;;;;;;22.45;50.71;100539.19;5028419;28;8446;-56
2021/05/31 10:43:58;;;;;;;;;;;;;;;22.44;50.65;100542.28;5019064;28;8523;-53
2021/05/31 10:46:27;;;;;;;;;;;;;;;21.85;51.49;100535.75;5016465;28;10156;-57
2021/05/31 10:48:53;;;;;;;;;;;;;;;21.75;51.93;100538.75;5024629;28;8482;-54
2021/05/31 10:51:19;;;;;;;;;;;;;;;21.50;51.13;100538.25;5024467;28;8472;-58
2021/05/31 10:53:44;;;;;;;;;;;;;;;21.73;52.95;100535.50;5027155;28;8392;-57
2021/05/31 10:56:16;;;;;;;;;;;;;;;22.02;51.97;100534.22;5022555;28;8444;-56
2021/05/31 10:58:47;;;;;;;;;;;;;;;22.38;51.00;100538.84;5026187;28;8525;-54
2021/05/31 11:01:13;;;;;;;;;;;;;;;22.43;50.76;100524.03;5017444;28;9235;-56
2021/05/31 11:03:48;;;;;;;;;;;;;;;22.01;51.86;100518.75;5027481;28;9386;-56
2021/05/31 11:06:15;;;;;;;;;;;;;;;21.99;51.39;100512.69;5030807;28;8446;-56
2021/05/31 11:08:48;;;;;;;;;;;;;;;21.64;50.20;100506.94;5030333;28;8709;-55
2021/05/31 11:11:22;;;;;;;;;;;;;;;21.72;53.00;100505.38;5031028;28;8395;-57
2021/05/31 11:13:51;;;;;;;;;;;;;;;22.12;51.65;100508.22;4991049;28;9869;-51
2021/05/31 11:16:16;;;;;;;;;;;;;;;22.41;50.81;100506.91;5004450;28;10150;-51
2021/05/31 11:18:45;;;;;;;;;;;;;;;22.51;50.59;100504.69;5005459;28;8544;-50
2021/05/31 11:21:11;;;;;;;;;;;;;;;22.18;51.04;100502.22;5010967;28;8384;-57
2021/05/31 11:23:37;;;;;;;;;;;;;;;22.08;51.47;100508.03;5006058;28;8411;-55
2021/05/31 11:26:03;;;;;;;;;;;;;;;21.80;51.26;100507.41;5005949;28;8523;-58
2021/05/31 11:28:28;;;;;;;;;;;;;;;21.60;52.52;100511.47;5005324;28;8472;-57
2021/05/31 11:30:55;;;;;;;;;;;;;;;21.95;52.14;100498.69;5010197;28;9409;-50
2021/05/31 11:33:21;;;;;;;;;;;;;;;22.15;51.54;100502.06;5005119;28;8462;-57
2021/05/31 11:35:47;;;;;;;;;;;;;;;22.48;50.51;100493.41;5005828;28;8523;-59
2021/05/31 11:38:14;;;;;;;;;;;;;;;22.32;50.79;100501.31;5002604;28;8387;-50
2021/05/31 11:40:40;;;;;;;;;;;;;;;21.97;51.88;100493.66;5029777;28;8358;-57
2021/05/31 11:43:07;;;;;;;;;;;;;;;21.73;51.22;100496.75;5037729;28;788;-55
2021/05/31 11:45:37;;;;;;;;;;;;;;;21.68;51.67;100491.34;5035898;28;1053;-59
2021/05/31 11:48:04;;;;;;;;;;;;;;;21.71;51.92;100487.94;5035709;28;1999;-57
2021/05/31 11:50:29;;;;;;;;;;;;;;;21.88;52.36;100481.69;5035588;28;932;-55
2021/05/31 11:52:55;;;;;;;;;;;;;;;22.19;51.32;100487.25;5036650;28;1101;-48
2021/05/31 11:55:21;;;;;;;;;;;;;;;22.48;50.69;100487.88;5037375;28;788;-51
2021/05/31 11:57:47;;;;;;;;;;;;;;;22.63;50.22;100489.41;5034842;28;1827;-45
2021/05/31 12:00:16;;;;;;;;;;;;;;;22.21;51.31;100484.16;5035770;28;901;-46
2021/05/31 12:02:42;;;;;;;;;;;;;;;21.94;52.04;100485.97;5036304;28;975;-48
2021/05/31 12:05:08;;;;;;;;;;;;;;;21.66;50.82;100485.31;5036681;28;776;-56
2021/05/31 12:07:37;;;;;;;;;;;;;;;21.76;53.06;100490.59;5036209;28;1971;-55
2021/05/31 12:10:03;;;;;;;;;;;;;;;22.06;51.87;100485.38;5036731;28;751;-56
2021/05/31 12:12:28;;;;;;;;;;;;;;;22.27;51.39;100493.94;5036730;28;751;-56
2021/05/31 12:14:54;;;;;;;;;;;;;;;22.52;50.52;100488.84;5036613;28;788;-55
2021/05/31 12:17:20;;;;;;;;;;;;;;;22.12;51.70;100491.59;5036344;28;1457;-58
2021/05/31 12:19:46;;;;;;;;;;;;;;;22.03;52.06;100491.56;5035862;28;824;-54
2021/05/31 12:22:11;;;;;;;;;;;;;;;21.52;50.70;100490.94;5036428;28;811;-53
2021/05/31 12:24:37;;;;;;;;;;;;;;;21.68;53.00;100494.13;5035755;28;827;-50
2021/05/31 12:27:03;;;;;;;;;;;;;;;21.94;52.38;100494.28;5036196;28;1914;-49
2021/05/31 12:29:36;;;;;;;;;;;;;;;22.27;51.54;100490.38;5035931;28;784;-55
2021/05/31 12:32:02;;;;;;;;;;;;;;;22.45;50.84;100494.06;5035458;28;1227;-58
2021/05/31 12:34:28;;;;;;;;;;;;;;;22.10;51.77;100491.09;5035928;28;1190;-57
2021/05/31 12:36:53;;;;;;;;;;;;;;;21.88;52.33;100482.53;5036301;28;784;-50
2021/05/31 12:39:19;;;;;;;;;;;;;;;21.75;52.17;100474.31;5035827;28;807;-48
2021/05/31 12:41:45;;;;;;;;;;;;;;;21.57;51.21;100476.13;5018600;28;717;-48
2021/05/31 12:44:10;;;;;;;;;;;;;;;21.81;52.69;100473.03;5036137;28;744;-59
2021/05/31 12:46:39;;;;;;;;;;;;;;;22.11;51.97;100474.16;5036077;28;1906;-58
2021/05/31 12:49:05;;;;;;;;;;;;;;;22.36;50.95;100466.34;5033848;28;972;-51
2021/05/31 12:51:30;;;;;;;;;;;;;;;22.34;51.01;100469.44;5035736;28;862;-57
2021/05/31 12:53:59;;;;;;;;;;;;;;;22.58;50.49;100470.13;5036371;28;831;-57
2021/05/31 12:56:28;;;;;;;;;;;;;;;22.16;51.66;100471.28;5014709;28;1519;-58
2021/05/31 12:59:01;;;;;;;;;;;;;;;21.91;52.42;100466.41;5020708;28;740;-57
2021/05/31 13:01:27;;;;;;;;;;;;;;;21.65;51.62;100461.53;5020494;28;869;-54
2021/05/31 13:03:59;;;;;;;;;;;;;;;21.70;52.48;100464.19;5035578;28;956;-47
2021/05/31 13:06:37;;;;;;;;;;;;;;;21.93;52.35;100455.84;5036211;28;848;-50
2021/05/31 13:09:03;;;;;;;;;;;;;;;22.30;51.44;100453.72;5036029;28;855;-48